CPX308 Details

Departure: Theodore Francis Green State Airport (KPVD)
Arrival: Chicago/Rockford International Airport (KRFD)
Route: BAF HNK NUGNT DJB J60 JOT V171 RFD


Current Weather Information
KPVD 251151Z 28006KT 10SM CLR 14/09 A3022 RMK AO2 SLP232 T01440094 10144 20089 53013
KRFD 251154Z 20007KT 10SM BKN060 21/16 A2990 RMK AO2 SLP121 60000 70051 T02110161 10244 20194 51029